createdAt,value
2023-03-25T00:01:27.793Z,355
2023-03-25T00:03:34.047Z,355
2023-03-25T00:05:41.402Z,355
2023-03-25T00:07:48.054Z,355
2023-03-25T00:09:54.199Z,355
2023-03-25T00:12:00.529Z,355
2023-03-25T00:14:07.504Z,355
2023-03-25T00:16:13.810Z,355
2023-03-25T00:18:20.204Z,355
2023-03-25T00:20:26.720Z,355
2023-03-25T00:22:33.673Z,355
2023-03-25T00:24:40.845Z,355
2023-03-25T00:26:47.245Z,355
2023-03-25T00:28:53.921Z,355
2023-03-25T00:31:00.340Z,355
2023-03-25T00:33:07.195Z,355
2023-03-25T00:35:13.426Z,355
2023-03-25T00:37:20.216Z,355
2023-03-25T00:39:26.900Z,355
2023-03-25T00:41:33.600Z,354
2023-03-25T00:43:39.965Z,354
2023-03-25T00:45:46.653Z,355
2023-03-25T00:47:53.761Z,354
2023-03-25T00:50:00.108Z,354
2023-03-25T00:52:06.610Z,354
2023-03-25T00:54:13.214Z,354
2023-03-25T00:56:20.052Z,354
2023-03-25T00:58:27.754Z,354
2023-03-25T01:00:34.666Z,354
2023-03-25T01:02:42.293Z,354
2023-03-25T01:04:49.110Z,354
2023-03-25T01:06:56.039Z,354
2023-03-25T01:09:02.553Z,354
2023-03-25T01:11:09.465Z,354
2023-03-25T01:13:16.370Z,354
2023-03-25T01:15:23.394Z,354
2023-03-25T01:17:29.919Z,354
2023-03-25T01:19:37.307Z,354
2023-03-25T01:21:44.644Z,354
2023-03-25T01:23:51.459Z,354
2023-03-25T01:25:58.663Z,354
2023-03-25T01:28:05.880Z,354
2023-03-25T01:30:11.995Z,354
2023-03-25T01:32:18.832Z,354
2023-03-25T01:34:25.558Z,354
2023-03-25T01:36:33.036Z,354
2023-03-25T01:38:40.124Z,354
2023-03-25T01:40:47.623Z,354
2023-03-25T01:42:54.716Z,354
2023-03-25T01:45:01.990Z,354
2023-03-25T01:47:08.432Z,354
2023-03-25T01:49:15.673Z,354
2023-03-25T01:51:22.584Z,354
2023-03-25T01:53:29.758Z,354
2023-03-25T01:55:36.449Z,354
2023-03-25T01:57:43.204Z,354
2023-03-25T01:59:49.550Z,354
2023-03-25T02:01:56.970Z,354
2023-03-25T02:04:04.469Z,354
2023-03-25T02:06:12.018Z,354
2023-03-25T02:08:18.499Z,354
2023-03-25T02:10:25.979Z,354
2023-03-25T02:12:32.112Z,354
2023-03-25T02:14:38.633Z,354
2023-03-25T02:16:45.636Z,354
2023-03-25T02:18:52.300Z,354
2023-03-25T02:20:58.816Z,354
2023-03-25T02:23:05.379Z,354
2023-03-25T02:25:11.722Z,354
2023-03-25T02:27:18.366Z,354
2023-03-25T02:29:24.712Z,354
2023-03-25T02:31:31.089Z,354
2023-03-25T02:33:37.320Z,354
2023-03-25T02:35:43.909Z,354
2023-03-25T02:37:50.706Z,354
2023-03-25T02:39:57.271Z,354
2023-03-25T02:42:03.460Z,354
2023-03-25T02:44:09.648Z,353
2023-03-25T02:46:16.421Z,353
2023-03-25T02:48:23.347Z,353
2023-03-25T02:50:30.517Z,354
2023-03-25T02:52:36.699Z,354
2023-03-25T02:54:44.152Z,353
2023-03-25T02:56:51.105Z,354
2023-03-25T02:58:57.893Z,353
2023-03-25T03:01:04.562Z,353
2023-03-25T03:03:11.771Z,354
2023-03-25T03:05:18.494Z,354
2023-03-25T03:07:24.626Z,353
2023-03-25T03:09:31.017Z,353
2023-03-25T03:11:37.470Z,353
2023-03-25T03:13:44.073Z,354
2023-03-25T03:15:51.058Z,353
2023-03-25T03:17:58.286Z,353
2023-03-25T03:20:05.069Z,353
2023-03-25T03:22:11.849Z,353
2023-03-25T03:24:18.205Z,354
2023-03-25T03:26:24.780Z,353
2023-03-25T03:28:31.698Z,353
2023-03-25T03:30:38.285Z,353
2023-03-25T03:32:45.087Z,353
2023-03-25T03:34:52.172Z,353
2023-03-25T03:36:58.974Z,353
2023-03-25T03:39:05.311Z,353
2023-03-25T03:41:11.615Z,353
2023-03-25T03:43:18.148Z,353
2023-03-25T03:45:24.742Z,353
2023-03-25T03:47:31.291Z,353
2023-03-25T03:49:37.434Z,353
2023-03-25T03:51:43.996Z,353
2023-03-25T03:53:50.774Z,353
2023-03-25T03:55:57.122Z,353
2023-03-25T03:58:03.311Z,353
2023-03-25T04:00:09.771Z,353
2023-03-25T04:02:16.555Z,353
2023-03-25T04:04:23.176Z,353
2023-03-25T04:06:29.799Z,353
2023-03-25T04:08:36.039Z,353
2023-03-25T04:10:42.407Z,353
2023-03-25T04:12:48.659Z,353
2023-03-25T04:14:55.120Z,353
2023-03-25T04:17:01.598Z,353
2023-03-25T04:19:08.133Z,353
2023-03-25T04:21:14.585Z,353
2023-03-25T04:23:21.859Z,353
2023-03-25T04:25:28.318Z,353
2023-03-25T04:27:35.481Z,353
2023-03-25T04:29:42.331Z,353
2023-03-25T04:31:49.126Z,353
2023-03-25T04:33:56.534Z,353
2023-03-25T04:36:03.983Z,353
2023-03-25T04:38:10.839Z,353
2023-03-25T04:40:18.024Z,353
2023-03-25T04:42:24.611Z,353
2023-03-25T04:44:30.813Z,353
2023-03-25T04:46:37.298Z,353
2023-03-25T04:48:43.626Z,353
2023-03-25T04:50:49.981Z,353
2023-03-25T04:52:56.890Z,353
2023-03-25T04:55:03.303Z,353
2023-03-25T04:57:09.893Z,353
2023-03-25T04:59:15.988Z,353
2023-03-25T05:01:22.514Z,353
2023-03-25T05:03:28.807Z,353
2023-03-25T05:05:34.771Z,353
2023-03-25T05:07:41.313Z,353
2023-03-25T05:09:47.555Z,353
2023-03-25T05:11:53.863Z,353
2023-03-25T05:14:00.731Z,353
2023-03-25T05:16:07.054Z,353
2023-03-25T05:18:13.395Z,353
2023-03-25T05:20:19.691Z,353
2023-03-25T05:22:26.271Z,353
2023-03-25T05:24:32.548Z,353
2023-03-25T05:26:38.963Z,353
2023-03-25T05:28:45.971Z,353
2023-03-25T05:30:52.428Z,353
2023-03-25T05:33:00.266Z,353
2023-03-25T05:35:07.045Z,353
2023-03-25T05:37:13.819Z,353
2023-03-25T05:39:20.032Z,353
2023-03-25T05:41:26.707Z,353
2023-03-25T05:43:33.235Z,353
2023-03-25T05:45:39.457Z,353
2023-03-25T05:47:46.326Z,353
2023-03-25T05:49:52.656Z,353
2023-03-25T05:51:58.899Z,353
2023-03-25T05:54:05.361Z,353
2023-03-25T05:56:11.689Z,353
2023-03-25T05:58:18.778Z,353
2023-03-25T06:00:27.415Z,353
2023-03-25T06:02:34.410Z,353
2023-03-25T06:04:40.745Z,353
2023-03-25T06:06:47.171Z,353
2023-03-25T06:08:54.582Z,353
2023-03-25T06:11:01.474Z,353
2023-03-25T06:13:08.186Z,353
2023-03-25T06:15:15.569Z,353
2023-03-25T06:17:22.151Z,353
2023-03-25T06:19:28.896Z,353
2023-03-25T06:21:35.495Z,353
2023-03-25T06:23:41.610Z,353
2023-03-25T06:25:48.481Z,353
2023-03-25T06:27:55.415Z,353
2023-03-25T06:30:01.889Z,353
2023-03-25T06:32:08.874Z,353
2023-03-25T06:34:15.308Z,353
2023-03-25T06:36:22.491Z,353
2023-03-25T06:38:29.445Z,353
2023-03-25T06:40:36.180Z,353
2023-03-25T06:42:42.802Z,353
2023-03-25T06:44:49.238Z,353
2023-03-25T06:46:55.988Z,353
2023-03-25T06:49:02.643Z,353
2023-03-25T06:51:09.339Z,353
2023-03-25T06:53:17.370Z,353
2023-03-25T06:55:24.925Z,353
2023-03-25T06:57:32.319Z,353
2023-03-25T06:59:40.008Z,353
2023-03-25T07:01:48.688Z,353
2023-03-25T07:03:56.547Z,353
2023-03-25T07:06:03.503Z,353
2023-03-25T07:08:11.414Z,353
2023-03-25T07:10:20.367Z,353
2023-03-25T07:12:29.458Z,353
2023-03-25T07:14:36.841Z,353
2023-03-25T07:16:44.803Z,353
2023-03-25T07:18:51.835Z,353
2023-03-25T07:20:58.068Z,353
2023-03-25T07:23:05.240Z,353
2023-03-25T07:25:13.193Z,353
2023-03-25T07:27:21.792Z,353
2023-03-25T07:29:28.399Z,353
2023-03-25T07:31:36.199Z,353
2023-03-25T07:33:44.088Z,353
2023-03-25T07:35:52.292Z,353
2023-03-25T07:37:59.485Z,353
2023-03-25T07:40:06.604Z,353
2023-03-25T07:42:13.697Z,353
2023-03-25T07:44:21.365Z,353
2023-03-25T07:46:28.300Z,353
2023-03-25T07:48:35.985Z,353
2023-03-25T07:50:42.939Z,353
2023-03-25T07:52:50.230Z,353
2023-03-25T07:54:57.300Z,353
2023-03-25T07:57:05.359Z,353
2023-03-25T07:59:12.157Z,353
2023-03-25T08:01:19.042Z,353
2023-03-25T08:03:26.011Z,353
2023-03-25T08:05:32.472Z,353
2023-03-25T08:07:39.140Z,353
2023-03-25T08:09:45.663Z,353
2023-03-25T08:11:52.339Z,353
2023-03-25T08:13:58.752Z,353
2023-03-25T08:16:06.282Z,353
2023-03-25T08:18:13.472Z,353
2023-03-25T08:20:20.299Z,353
2023-03-25T08:22:27.849Z,353
2023-03-25T08:24:34.465Z,353
2023-03-25T08:26:40.777Z,353
2023-03-25T08:28:48.934Z,353
2023-03-25T08:30:57.424Z,353
2023-03-25T08:33:05.750Z,353
2023-03-25T08:35:13.496Z,353
2023-03-25T08:37:21.966Z,353
2023-03-25T08:39:29.212Z,353
2023-03-25T08:41:37.695Z,353
2023-03-25T08:43:48.292Z,353
2023-03-25T08:45:56.265Z,353
2023-03-25T08:48:03.951Z,353
2023-03-25T08:50:11.368Z,353
2023-03-25T08:52:19.379Z,353
2023-03-25T08:54:26.062Z,353
2023-03-25T08:56:33.709Z,353
2023-03-25T08:58:40.405Z,353
2023-03-25T09:00:46.815Z,353
2023-03-25T09:02:54.726Z,353
2023-03-25T09:05:02.728Z,353
2023-03-25T09:07:15.190Z,353
2023-03-25T09:09:25.097Z,353
2023-03-25T09:11:40.257Z,353
2023-03-25T09:13:48.394Z,353
2023-03-25T09:15:56.959Z,353
2023-03-25T09:18:05.916Z,353
2023-03-25T09:20:15.074Z,353
2023-03-25T09:22:22.258Z,353
2023-03-25T09:24:29.953Z,353
2023-03-25T09:26:37.007Z,353
2023-03-25T09:28:43.555Z,353
2023-03-25T09:30:50.767Z,353
2023-03-25T09:32:57.919Z,353
2023-03-25T09:35:05.005Z,353
2023-03-25T09:37:13.402Z,353
2023-03-25T09:39:20.577Z,353
2023-03-25T09:41:28.254Z,353
2023-03-25T09:43:38.505Z,353
2023-03-25T09:45:46.248Z,353
2023-03-25T09:47:56.459Z,353
2023-03-25T09:50:04.269Z,353
2023-03-25T09:52:11.130Z,353
2023-03-25T09:54:17.431Z,353
2023-03-25T09:56:25.502Z,353
2023-03-25T09:58:32.062Z,353
2023-03-25T10:00:38.623Z,353
2023-03-25T10:02:45.999Z,353
2023-03-25T10:04:52.952Z,353
2023-03-25T10:07:00.295Z,353
2023-03-25T10:09:07.127Z,353
2023-03-25T10:11:13.860Z,353
2023-03-25T10:13:22.950Z,353
2023-03-25T10:15:30.073Z,353
2023-03-25T10:17:37.448Z,353
2023-03-25T10:19:44.588Z,353
2023-03-25T10:21:53.086Z,353
2023-03-25T10:23:59.520Z,353
2023-03-25T10:26:09.657Z,353
2023-03-25T10:28:17.660Z,353
2023-03-25T10:30:26.989Z,353
2023-03-25T10:32:35.364Z,353
2023-03-25T10:34:42.447Z,353
2023-03-25T10:36:48.901Z,353
2023-03-25T10:38:56.067Z,353
2023-03-25T10:41:04.144Z,353
2023-03-25T10:43:12.756Z,353
2023-03-25T10:45:20.002Z,353
2023-03-25T10:47:26.343Z,353
2023-03-25T10:49:33.349Z,353
2023-03-25T10:51:41.157Z,353
2023-03-25T10:53:47.826Z,353
2023-03-25T10:55:56.144Z,353
2023-03-25T10:58:04.182Z,353
2023-03-25T11:00:12.021Z,353
2023-03-25T11:02:19.095Z,353
2023-03-25T11:04:25.871Z,353
2023-03-25T11:06:32.530Z,353
2023-03-25T11:08:39.284Z,353
2023-03-25T11:10:45.946Z,353
2023-03-25T11:12:54.429Z,353
2023-03-25T11:15:02.038Z,353
2023-03-25T11:17:11.398Z,353
2023-03-25T11:19:18.853Z,353
2023-03-25T11:21:27.128Z,354
2023-03-25T11:23:35.327Z,353
2023-03-25T11:25:42.899Z,353
2023-03-25T11:27:49.515Z,354
2023-03-25T11:29:56.148Z,354
2023-03-25T11:32:03.003Z,354
2023-03-25T11:34:12.205Z,354
2023-03-25T11:36:18.877Z,353
2023-03-25T11:38:27.648Z,354
2023-03-25T11:40:35.092Z,354
2023-03-25T11:42:43.050Z,354
2023-03-25T11:44:49.727Z,354
2023-03-25T11:46:56.552Z,354
2023-03-25T11:49:04.424Z,353
2023-03-25T11:51:12.689Z,353
2023-03-25T11:53:19.422Z,354
2023-03-25T11:55:26.418Z,354
2023-03-25T11:57:35.813Z,354
2023-03-25T11:59:44.822Z,354
2023-03-25T12:01:53.222Z,354
2023-03-25T12:04:00.286Z,354
2023-03-25T12:06:08.073Z,354
2023-03-25T12:08:16.771Z,354
2023-03-25T12:10:24.519Z,354
2023-03-25T12:12:33.001Z,354
2023-03-25T12:14:41.220Z,354
2023-03-25T12:16:49.980Z,353
2023-03-25T12:18:58.202Z,339
2023-03-25T12:21:06.152Z,350
2023-03-25T12:23:14.005Z,349
2023-03-25T12:25:22.993Z,349
2023-03-25T12:27:30.520Z,349
2023-03-25T12:29:38.542Z,349
2023-03-25T12:31:46.667Z,350
2023-03-25T12:33:54.470Z,346
2023-03-25T12:36:02.872Z,340
2023-03-25T12:38:12.499Z,342
2023-03-25T12:40:23.886Z,339
2023-03-25T12:42:31.031Z,341
2023-03-25T12:44:38.070Z,337
2023-03-25T12:46:44.825Z,339
2023-03-25T12:48:53.062Z,341
2023-03-25T12:51:02.033Z,343
2023-03-25T12:53:10.225Z,346
2023-03-25T12:55:19.685Z,317
2023-03-25T12:57:28.508Z,320
2023-03-25T12:59:37.935Z,320
2023-03-25T13:01:49.889Z,350
2023-03-25T13:03:59.067Z,350
2023-03-25T13:06:07.268Z,349
2023-03-25T13:08:14.993Z,349
2023-03-25T13:10:21.517Z,344
2023-03-25T13:12:28.924Z,350
2023-03-25T13:14:37.311Z,350
2023-03-25T13:16:44.935Z,349
2023-03-25T13:18:53.286Z,349
2023-03-25T13:21:04.987Z,349
2023-03-25T13:23:20.049Z,349
2023-03-25T13:25:28.263Z,349
2023-03-25T13:27:35.827Z,349
2023-03-25T13:29:44.190Z,349
2023-03-25T13:31:52.247Z,348
2023-03-25T13:34:01.606Z,349
2023-03-25T13:36:10.464Z,350
2023-03-25T13:38:18.436Z,352
2023-03-25T13:40:26.888Z,353
2023-03-25T13:42:34.625Z,353
2023-03-25T13:44:42.736Z,352
2023-03-25T13:46:51.264Z,352
2023-03-25T13:48:59.304Z,353
2023-03-25T13:51:07.467Z,353
2023-03-25T13:53:15.855Z,352
2023-03-25T13:55:24.819Z,353
2023-03-25T13:57:31.715Z,353
2023-03-25T13:59:40.231Z,353
2023-03-25T14:01:48.996Z,352
2023-03-25T14:03:57.522Z,352
2023-03-25T14:06:05.593Z,352
2023-03-25T14:08:13.832Z,352
2023-03-25T14:10:22.437Z,319
2023-03-25T14:12:30.473Z,319
2023-03-25T14:14:38.390Z,319
2023-03-25T14:16:45.185Z,346
2023-03-25T14:18:53.611Z,350
2023-03-25T14:21:03.549Z,350
2023-03-25T14:23:11.256Z,350
2023-03-25T14:25:19.129Z,350
2023-03-25T14:27:26.994Z,351
2023-03-25T14:29:35.460Z,350
2023-03-25T14:31:43.995Z,351
2023-03-25T14:33:54.586Z,351
2023-03-25T14:36:02.604Z,351
2023-03-25T14:38:10.468Z,351
2023-03-25T14:40:17.972Z,351
2023-03-25T14:42:25.410Z,350
2023-03-25T14:44:32.535Z,350
2023-03-25T14:46:40.843Z,351
2023-03-25T14:48:48.952Z,350
2023-03-25T14:50:57.739Z,351
2023-03-25T14:53:05.689Z,351
2023-03-25T14:55:12.667Z,351
2023-03-25T14:57:21.071Z,351
2023-03-25T14:59:29.105Z,351
2023-03-25T15:01:36.740Z,351
2023-03-25T15:03:45.482Z,351
2023-03-25T15:05:53.507Z,351
2023-03-25T15:08:04.051Z,351
2023-03-25T15:10:12.220Z,350
2023-03-25T15:12:20.220Z,351
2023-03-25T15:14:28.126Z,351
2023-03-25T15:16:36.418Z,351
2023-03-25T15:18:45.203Z,351
2023-03-25T15:20:53.807Z,351
2023-03-25T15:23:02.313Z,351
2023-03-25T15:25:12.045Z,351
2023-03-25T15:27:21.534Z,351
2023-03-25T15:29:29.450Z,351
2023-03-25T15:31:40.488Z,351
2023-03-25T15:33:48.566Z,351
2023-03-25T15:35:57.029Z,351
2023-03-25T15:38:06.803Z,351
2023-03-25T15:40:15.167Z,351
2023-03-25T15:42:24.841Z,351
2023-03-25T15:44:32.416Z,351
2023-03-25T15:46:39.721Z,350
2023-03-25T15:48:47.941Z,350
2023-03-25T15:50:56.789Z,351
2023-03-25T15:53:05.283Z,351
2023-03-25T15:55:13.087Z,351
2023-03-25T15:57:23.556Z,351
2023-03-25T15:59:31.874Z,351
2023-03-25T16:01:40.655Z,351
2023-03-25T16:03:48.529Z,351
2023-03-25T16:05:56.926Z,351
2023-03-25T16:08:05.002Z,351
2023-03-25T16:10:13.522Z,351
2023-03-25T16:12:21.826Z,351
2023-03-25T16:14:29.960Z,350
2023-03-25T16:16:39.643Z,351
2023-03-25T16:18:48.519Z,350
2023-03-25T16:20:56.720Z,350
2023-03-25T16:23:06.368Z,350
2023-03-25T16:25:16.513Z,350
2023-03-25T16:27:28.864Z,350
2023-03-25T16:29:36.550Z,350
2023-03-25T16:31:44.757Z,350
2023-03-25T16:33:53.720Z,350
2023-03-25T16:36:02.991Z,351
2023-03-25T16:38:11.373Z,351
2023-03-25T16:40:20.168Z,351
2023-03-25T16:42:27.912Z,351
2023-03-25T16:44:36.325Z,351
2023-03-25T16:46:44.468Z,351
2023-03-25T16:48:51.430Z,351
2023-03-25T16:50:58.251Z,351
2023-03-25T16:53:05.785Z,351
2023-03-25T16:55:13.035Z,351
2023-03-25T16:57:20.871Z,351
2023-03-25T16:59:27.447Z,351
2023-03-25T17:01:34.143Z,351
2023-03-25T17:03:43.343Z,351
2023-03-25T17:05:53.353Z,351
2023-03-25T17:08:01.382Z,352
2023-03-25T17:10:10.826Z,351
2023-03-25T17:12:18.895Z,351
2023-03-25T17:14:28.403Z,351
2023-03-25T17:16:37.952Z,351
2023-03-25T17:18:48.212Z,351
2023-03-25T17:21:00.271Z,351
2023-03-25T17:23:09.453Z,351
2023-03-25T17:25:18.862Z,351
2023-03-25T17:27:29.127Z,351
2023-03-25T17:29:40.558Z,351
2023-03-25T17:31:52.768Z,351
2023-03-25T17:34:01.106Z,351
2023-03-25T17:36:16.760Z,351
2023-03-25T17:38:27.053Z,351
2023-03-25T17:40:38.782Z,351
2023-03-25T17:42:48.866Z,351
2023-03-25T17:44:58.997Z,351
2023-03-25T17:47:22.358Z,351
2023-03-25T17:49:31.618Z,351
2023-03-25T17:51:41.318Z,351
2023-03-25T17:53:51.713Z,351
2023-03-25T17:56:02.320Z,351
2023-03-25T17:58:11.904Z,351
2023-03-25T18:00:30.292Z,351
2023-03-25T18:02:40.157Z,351
2023-03-25T18:04:51.023Z,351
2023-03-25T18:07:00.111Z,351
2023-03-25T18:09:09.302Z,351
2023-03-25T18:11:18.124Z,351
2023-03-25T18:13:29.814Z,351
2023-03-25T18:15:43.495Z,351
2023-03-25T18:17:54.985Z,351
2023-03-25T18:20:05.935Z,351
2023-03-25T18:22:24.083Z,351
2023-03-25T18:24:32.277Z,351
2023-03-25T18:26:41.844Z,351
2023-03-25T18:28:54.383Z,351
2023-03-25T18:31:02.803Z,351
2023-03-25T18:33:11.471Z,351
2023-03-25T18:35:22.613Z,351
2023-03-25T18:37:32.281Z,351
2023-03-25T18:39:41.163Z,351
2023-03-25T18:41:50.297Z,351
2023-03-25T18:44:00.587Z,351
2023-03-25T18:46:09.892Z,351
2023-03-25T18:48:19.640Z,351
2023-03-25T18:50:33.721Z,351
2023-03-25T18:52:53.774Z,351
2023-03-25T18:55:04.497Z,351
2023-03-25T18:57:15.471Z,351
2023-03-25T18:59:30.932Z,351
2023-03-25T19:01:43.716Z,351
2023-03-25T19:03:55.290Z,351
2023-03-25T19:06:05.276Z,351
2023-03-25T19:08:18.447Z,351
2023-03-25T19:10:28.168Z,351
2023-03-25T19:12:42.180Z,351
2023-03-25T19:15:06.474Z,351
2023-03-25T19:17:25.393Z,350
2023-03-25T19:19:35.344Z,351
2023-03-25T19:21:45.994Z,351
2023-03-25T19:23:56.521Z,351
2023-03-25T19:26:05.783Z,351
2023-03-25T19:28:16.646Z,350
2023-03-25T19:30:34.488Z,351
2023-03-25T19:32:50.768Z,350
2023-03-25T19:35:02.758Z,350
2023-03-25T19:37:21.189Z,350
2023-03-25T19:39:31.446Z,350
2023-03-25T19:41:40.514Z,350
2023-03-25T19:43:51.349Z,350
2023-03-25T19:46:02.810Z,350
2023-03-25T19:48:12.615Z,351
2023-03-25T19:50:23.251Z,351
2023-03-25T19:52:38.206Z,350
2023-03-25T19:54:50.611Z,351
2023-03-25T19:57:01.870Z,351
2023-03-25T19:59:15.457Z,351
2023-03-25T20:01:28.723Z,350
2023-03-25T20:03:41.131Z,350
2023-03-25T20:05:53.219Z,351
2023-03-25T20:08:06.694Z,350
2023-03-25T20:10:31.668Z,351
2023-03-25T20:12:48.066Z,350
2023-03-25T20:15:00.717Z,350
2023-03-25T20:17:17.627Z,351
2023-03-25T20:19:29.474Z,350
2023-03-25T20:21:38.684Z,350
2023-03-25T20:23:49.298Z,350
2023-03-25T20:26:00.764Z,350
2023-03-25T20:28:14.006Z,350
2023-03-25T20:30:28.350Z,350
2023-03-25T20:32:50.251Z,350
2023-03-25T20:35:03.108Z,350
2023-03-25T20:37:14.271Z,350
2023-03-25T20:39:25.691Z,350
2023-03-25T20:41:38.005Z,351
2023-03-25T20:43:52.752Z,350
2023-03-25T20:46:05.283Z,350
2023-03-25T20:48:27.878Z,350
2023-03-25T20:50:40.820Z,351
2023-03-25T20:52:51.895Z,350
2023-03-25T20:55:05.210Z,351
2023-03-25T20:57:14.490Z,350
2023-03-25T20:59:23.068Z,350
2023-03-25T21:01:33.261Z,350
2023-03-25T21:03:44.686Z,350
2023-03-25T21:05:59.641Z,350
2023-03-25T21:08:25.462Z,350
2023-03-25T21:10:33.080Z,350
2023-03-25T21:12:47.336Z,350
2023-03-25T21:14:56.635Z,350
2023-03-25T21:17:05.916Z,350
2023-03-25T21:19:14.404Z,350
2023-03-25T21:21:26.789Z,350
2023-03-25T21:23:34.843Z,350
2023-03-25T21:25:43.441Z,350
2023-03-25T21:27:53.752Z,350
2023-03-25T21:30:04.475Z,350
2023-03-25T21:32:12.999Z,350
2023-03-25T21:34:21.093Z,350
2023-03-25T21:36:29.317Z,350
2023-03-25T21:38:38.164Z,350
2023-03-25T21:40:46.670Z,350
2023-03-25T21:42:53.701Z,350
2023-03-25T21:45:01.074Z,350
2023-03-25T21:47:08.965Z,350
2023-03-25T21:49:22.355Z,350
2023-03-25T21:51:32.707Z,350
2023-03-25T21:53:40.888Z,350
2023-03-25T21:55:49.470Z,350
2023-03-25T21:57:58.417Z,350
2023-03-25T22:00:08.602Z,350
2023-03-25T22:02:15.592Z,350
2023-03-25T22:04:23.422Z,350
2023-03-25T22:06:30.712Z,350
2023-03-25T22:08:37.190Z,350
2023-03-25T22:10:45.411Z,350
2023-03-25T22:12:53.275Z,350
2023-03-25T22:15:00.966Z,350
2023-03-25T22:17:08.423Z,350
2023-03-25T22:19:15.335Z,350
2023-03-25T22:21:22.596Z,350
2023-03-25T22:23:29.672Z,350
2023-03-25T22:25:37.316Z,350
2023-03-25T22:27:43.896Z,350
2023-03-25T22:29:50.902Z,350
2023-03-25T22:31:58.766Z,350
2023-03-25T22:34:06.492Z,350
2023-03-25T22:36:13.658Z,350
2023-03-25T22:38:20.800Z,350
2023-03-25T22:40:27.265Z,350
2023-03-25T22:42:37.197Z,350
2023-03-25T22:44:43.485Z,350
2023-03-25T22:46:50.935Z,350
2023-03-25T22:48:58.572Z,350
2023-03-25T22:51:06.379Z,350
2023-03-25T22:53:13.099Z,350
2023-03-25T22:55:20.105Z,350
2023-03-25T22:57:28.098Z,350
2023-03-25T22:59:35.698Z,350
2023-03-25T23:01:43.856Z,350
2023-03-25T23:03:52.185Z,350
2023-03-25T23:05:59.730Z,350
2023-03-25T23:08:06.927Z,350
2023-03-25T23:10:14.225Z,350
2023-03-25T23:12:21.838Z,350
2023-03-25T23:14:30.295Z,350
2023-03-25T23:16:37.370Z,350
2023-03-25T23:18:44.880Z,350
2023-03-25T23:20:54.454Z,350
2023-03-25T23:23:01.845Z,350
2023-03-25T23:25:09.167Z,350
2023-03-25T23:27:15.927Z,350
2023-03-25T23:29:22.660Z,350
2023-03-25T23:31:28.878Z,350
2023-03-25T23:33:35.916Z,350
2023-03-25T23:35:42.889Z,350
2023-03-25T23:37:50.018Z,350
2023-03-25T23:39:56.502Z,350
2023-03-25T23:42:04.253Z,350
2023-03-25T23:44:10.545Z,350
2023-03-25T23:46:17.521Z,350
2023-03-25T23:48:24.684Z,350
2023-03-25T23:50:31.408Z,350
2023-03-25T23:52:38.985Z,350
2023-03-25T23:54:46.915Z,350
2023-03-25T23:56:53.413Z,350
2023-03-25T23:59:00.927Z,350
